TRA9452 LOWI-EBBR
Flight info
| Callsign | TRA9452 |
|---|---|
| Flight time | 0h 57m |
| Altitude | 36000 |
| Route | MOGTI P66 KPT L608 TEDGO DCT IDOVI Z104 GESLO N852 LNO |
| Aircraft | B738/M-SDE2E3FGHIRWXY/LB1 |
Departure
| Time | 2026-05-04 08:54 |
|---|---|
| Airport | Innsbruck Airport (LOWI) |
Arrival
| Time | 2026-05-04 09:52 |
|---|---|
| Airport | Brussels Airport (EBBR) |
| Time | Latitude | Longitude | Altitude | Speed | Heading |
|---|---|---|---|---|---|
| 2026-05-04 08:40 | 47.25835 | 11.35117 | 1912 ft | 0 kts | 171° |
| 2026-05-04 08:46 | 47.25851 | 11.35114 | 1912 ft | 1 kts | 171° |
| 2026-05-04 08:46 | 47.25861 | 11.35111 | 1913 ft | 2 kts | 159° |
| 2026-05-04 08:46 | 47.25873 | 11.35098 | 1913 ft | 2 kts | 125° |
| 2026-05-04 08:46 | 47.25879 | 11.35078 | 1913 ft | 2 kts | 95° |
| 2026-05-04 08:47 | 47.25879 | 11.35066 | 1913 ft | 1 kts | 78° |
| 2026-05-04 08:47 | 47.25877 | 11.35058 | 1913 ft | 0 kts | 80° |
| 2026-05-04 08:50 | 47.25964 | 11.35280 | 1912 ft | 0 kts | 351° |
| 2026-05-04 08:51 | 47.25967 | 11.35280 | 1912 ft | 3 kts | 351° |
| 2026-05-04 08:51 | 47.26046 | 11.35261 | 1912 ft | 16 kts | 350° |
| 2026-05-04 08:51 | 47.26121 | 11.35327 | 1912 ft | 14 kts | 82° |
| 2026-05-04 08:51 | 47.26135 | 11.35482 | 1910 ft | 16 kts | 81° |
| 2026-05-04 08:52 | 47.26120 | 11.35634 | 1910 ft | 12 kts | 81° |
| 2026-05-04 08:52 | 47.26150 | 11.35608 | 1910 ft | 6 kts | 265° |
| 2026-05-04 08:52 | 47.26149 | 11.35603 | 1910 ft | 0 kts | 263° |
| 2026-05-04 08:53 | 47.26147 | 11.35576 | 1910 ft | 20 kts | 261° |
| 2026-05-04 08:54 | 47.25763 | 11.24331 | 4863 ft | 212 kts | 297° |
| 2026-05-04 08:55 | 47.26521 | 11.22385 | 5312 ft | 227 kts | 299° |
| 2026-05-04 08:55 | 47.27293 | 11.20290 | 5831 ft | 239 kts | 295° |
| 2026-05-04 08:55 | 47.27936 | 11.18045 | 6506 ft | 242 kts | 290° |
| 2026-05-04 08:55 | 47.28501 | 11.15718 | 7230 ft | 243 kts | 288° |
| 2026-05-04 08:57 | 47.30051 | 10.96555 | 11379 ft | 315 kts | 262° |
| 2026-05-04 09:01 | 47.52510 | 10.57803 | 20198 ft | 412 kts | 324° |
| 2026-05-04 09:01 | 47.54879 | 10.55404 | 20810 ft | 415 kts | 323° |
| 2026-05-04 09:01 | 47.57245 | 10.52987 | 21433 ft | 417 kts | 323° |
| 2026-05-04 09:01 | 47.59577 | 10.50586 | 22013 ft | 420 kts | 323° |
| 2026-05-04 09:02 | 47.61972 | 10.48111 | 22559 ft | 424 kts | 323° |
| 2026-05-04 09:02 | 47.64386 | 10.45610 | 23136 ft | 427 kts | 323° |
| 2026-05-04 09:02 | 47.66848 | 10.43056 | 23697 ft | 430 kts | 323° |
| 2026-05-04 09:02 | 47.69296 | 10.40513 | 24232 ft | 433 kts | 323° |
| 2026-05-04 09:03 | 47.71769 | 10.37942 | 24776 ft | 436 kts | 322° |
| 2026-05-04 09:03 | 47.74235 | 10.35375 | 25280 ft | 439 kts | 322° |
| 2026-05-04 09:03 | 47.76711 | 10.32694 | 25782 ft | 442 kts | 319° |
| 2026-05-04 09:03 | 47.79130 | 10.29853 | 26308 ft | 443 kts | 317° |
| 2026-05-04 09:04 | 47.81533 | 10.26904 | 26809 ft | 446 kts | 317° |
| 2026-05-04 09:04 | 47.83889 | 10.23964 | 27266 ft | 449 kts | 316° |
| 2026-05-04 09:04 | 47.86274 | 10.20977 | 27719 ft | 452 kts | 316° |
| 2026-05-04 09:04 | 47.88706 | 10.17940 | 28199 ft | 455 kts | 316° |
| 2026-05-04 09:05 | 47.91139 | 10.14914 | 28665 ft | 457 kts | 317° |
| 2026-05-04 09:05 | 47.93591 | 10.11875 | 29124 ft | 459 kts | 317° |
| 2026-05-04 09:05 | 47.96055 | 10.08833 | 29579 ft | 461 kts | 317° |
| 2026-05-04 09:05 | 47.98519 | 10.05792 | 29960 ft | 464 kts | 317° |
| 2026-05-04 09:06 | 48.00996 | 10.02735 | 30290 ft | 468 kts | 316° |
| 2026-05-04 09:07 | 48.18521 | 9.81053 | 33120 ft | 471 kts | 316° |
| 2026-05-04 09:08 | 48.21025 | 9.77941 | 33510 ft | 470 kts | 316° |
| 2026-05-04 09:08 | 48.23528 | 9.74830 | 33876 ft | 458 kts | 316° |
| 2026-05-04 09:08 | 48.25953 | 9.71814 | 34119 ft | 452 kts | 316° |
| 2026-05-04 09:08 | 48.28381 | 9.68783 | 34274 ft | 457 kts | 316° |
| 2026-05-04 09:09 | 48.30815 | 9.65738 | 34414 ft | 461 kts | 316° |
| 2026-05-04 09:09 | 48.33271 | 9.62660 | 34557 ft | 459 kts | 316° |
| 2026-05-04 09:09 | 48.35699 | 9.59613 | 34732 ft | 448 kts | 316° |
| 2026-05-04 09:09 | 48.38082 | 9.56591 | 34901 ft | 446 kts | 315° |
| 2026-05-04 09:10 | 48.40416 | 9.53604 | 35057 ft | 448 kts | 315° |
| 2026-05-04 09:10 | 48.42787 | 9.50556 | 35212 ft | 448 kts | 315° |
| 2026-05-04 09:10 | 48.45147 | 9.47515 | 35366 ft | 448 kts | 315° |
| 2026-05-04 09:10 | 48.47533 | 9.44440 | 35521 ft | 447 kts | 315° |
| 2026-05-04 09:11 | 48.49880 | 9.41416 | 35664 ft | 450 kts | 315° |
| 2026-05-04 09:11 | 48.54661 | 9.35245 | 35976 ft | 455 kts | 315° |
| 2026-05-04 09:12 | 48.59424 | 9.29099 | 36007 ft | 445 kts | 315° |
| 2026-05-04 09:14 | 48.78178 | 9.04729 | 36008 ft | 446 kts | 315° |
| 2026-05-04 09:14 | 48.82893 | 8.98562 | 36007 ft | 447 kts | 315° |
| 2026-05-04 09:15 | 48.87585 | 8.92408 | 36006 ft | 447 kts | 315° |
| 2026-05-04 09:15 | 48.92254 | 8.86272 | 36005 ft | 448 kts | 315° |
| 2026-05-04 09:17 | 49.13411 | 8.58266 | 35995 ft | 447 kts | 314° |
| 2026-05-04 09:18 | 49.18097 | 8.52017 | 35993 ft | 448 kts | 315° |
| 2026-05-04 09:18 | 49.22770 | 8.45771 | 35992 ft | 448 kts | 315° |
| 2026-05-04 09:19 | 49.27424 | 8.39533 | 35996 ft | 448 kts | 315° |
| 2026-05-04 09:19 | 49.32108 | 8.33241 | 35994 ft | 448 kts | 314° |
| 2026-05-04 09:20 | 49.36785 | 8.26939 | 36198 ft | 449 kts | 314° |
| 2026-05-04 09:20 | 49.39113 | 8.23799 | 36593 ft | 445 kts | 314° |
| 2026-05-04 09:20 | 49.41458 | 8.20631 | 36945 ft | 444 kts | 314° |
| 2026-05-04 09:21 | 49.43777 | 8.17494 | 37233 ft | 444 kts | 314° |
| 2026-05-04 09:21 | 49.46087 | 8.14363 | 37558 ft | 443 kts | 314° |
| 2026-05-04 09:21 | 49.48391 | 8.11239 | 37853 ft | 443 kts | 314° |
| 2026-05-04 09:21 | 49.50682 | 8.08124 | 38000 ft | 445 kts | 314° |
| 2026-05-04 09:22 | 49.55332 | 8.01790 | 38003 ft | 445 kts | 314° |
| 2026-05-04 09:22 | 49.59931 | 7.95513 | 38003 ft | 444 kts | 314° |
| 2026-05-04 09:23 | 49.64540 | 7.89206 | 37998 ft | 444 kts | 314° |
| 2026-05-04 09:23 | 49.69147 | 7.82884 | 38000 ft | 444 kts | 314° |
| 2026-05-04 09:25 | 49.87558 | 7.57458 | 38002 ft | 445 kts | 314° |
| 2026-05-04 09:26 | 49.92149 | 7.51074 | 38005 ft | 445 kts | 314° |
| 2026-05-04 09:26 | 49.96749 | 7.44660 | 38009 ft | 445 kts | 314° |
| 2026-05-04 09:27 | 50.01332 | 7.38252 | 38009 ft | 446 kts | 314° |
| 2026-05-04 09:27 | 50.03654 | 7.34996 | 37741 ft | 444 kts | 313° |
| 2026-05-04 09:27 | 50.05817 | 7.31706 | 37272 ft | 437 kts | 308° |
| 2026-05-04 09:28 | 50.07776 | 7.28102 | 36727 ft | 428 kts | 301° |
| 2026-05-04 09:28 | 50.09410 | 7.24295 | 36256 ft | 423 kts | 296° |
| 2026-05-04 09:28 | 50.10860 | 7.20324 | 35673 ft | 422 kts | 293° |
| 2026-05-04 09:28 | 50.12205 | 7.16319 | 35004 ft | 423 kts | 292° |
| 2026-05-04 09:29 | 50.13523 | 7.12259 | 34244 ft | 426 kts | 291° |
| 2026-05-04 09:29 | 50.14862 | 7.08089 | 33473 ft | 428 kts | 291° |
| 2026-05-04 09:29 | 50.16182 | 7.03976 | 32719 ft | 429 kts | 291° |
| 2026-05-04 09:29 | 50.17511 | 6.99853 | 31938 ft | 431 kts | 291° |
| 2026-05-04 09:30 | 50.18851 | 6.95705 | 31140 ft | 432 kts | 291° |
| 2026-05-04 09:30 | 50.20211 | 6.91507 | 30348 ft | 433 kts | 292° |
| 2026-05-04 09:30 | 50.21552 | 6.87387 | 29894 ft | 425 kts | 292° |
| 2026-05-04 09:30 | 50.22889 | 6.83284 | 29388 ft | 419 kts | 292° |
| 2026-05-04 09:31 | 50.24185 | 6.79302 | 28877 ft | 414 kts | 292° |
| 2026-05-04 09:31 | 50.25486 | 6.75298 | 28353 ft | 409 kts | 292° |
| 2026-05-04 09:31 | 50.26755 | 6.71386 | 27845 ft | 404 kts | 292° |
| 2026-05-04 09:31 | 50.28017 | 6.67488 | 27330 ft | 400 kts | 292° |
| 2026-05-04 09:32 | 50.29247 | 6.63679 | 26830 ft | 395 kts | 292° |
| 2026-05-04 09:32 | 50.30479 | 6.59862 | 26322 ft | 391 kts | 292° |
| 2026-05-04 09:34 | 50.39148 | 6.32799 | 22700 ft | 393 kts | 292° |
| 2026-05-04 09:34 | 50.40349 | 6.29040 | 22184 ft | 389 kts | 292° |
| 2026-05-04 09:34 | 50.41560 | 6.25245 | 21659 ft | 386 kts | 292° |
| 2026-05-04 09:34 | 50.42756 | 6.21494 | 21145 ft | 382 kts | 292° |
| 2026-05-04 09:35 | 50.43933 | 6.17793 | 20633 ft | 379 kts | 292° |
| 2026-05-04 09:35 | 50.45108 | 6.14091 | 20116 ft | 376 kts | 292° |
| 2026-05-04 09:35 | 50.46254 | 6.10480 | 19610 ft | 373 kts | 292° |
| 2026-05-04 09:35 | 50.47405 | 6.06841 | 19095 ft | 370 kts | 292° |
| 2026-05-04 09:37 | 50.55149 | 5.82188 | 15543 ft | 351 kts | 294° |
| 2026-05-04 09:37 | 50.56223 | 5.78742 | 15033 ft | 349 kts | 294° |
| 2026-05-04 09:38 | 50.57288 | 5.75333 | 14537 ft | 346 kts | 294° |
| 2026-05-04 09:38 | 50.58400 | 5.71993 | 14029 ft | 344 kts | 298° |
| 2026-05-04 09:38 | 50.59681 | 5.68836 | 13544 ft | 343 kts | 303° |
| 2026-05-04 09:38 | 50.61111 | 5.65848 | 13043 ft | 342 kts | 307° |
| 2026-05-04 09:39 | 50.62606 | 5.62953 | 12548 ft | 340 kts | 307° |
| 2026-05-04 09:39 | 50.64100 | 5.60113 | 12073 ft | 337 kts | 308° |
| 2026-05-04 09:39 | 50.65584 | 5.57280 | 11587 ft | 335 kts | 308° |
| 2026-05-04 09:39 | 50.67052 | 5.54443 | 11099 ft | 333 kts | 307° |
| 2026-05-04 09:40 | 50.68491 | 5.51631 | 10676 ft | 329 kts | 307° |
| 2026-05-04 09:40 | 50.69868 | 5.48921 | 10449 ft | 319 kts | 307° |
| 2026-05-04 09:40 | 50.71238 | 5.46218 | 10338 ft | 305 kts | 307° |
| 2026-05-04 09:40 | 50.72527 | 5.43667 | 10230 ft | 293 kts | 307° |
| 2026-05-04 09:41 | 50.73779 | 5.41185 | 10122 ft | 281 kts | 307° |
| 2026-05-04 09:42 | 50.82078 | 5.24683 | 7731 ft | 270 kts | 307° |
| 2026-05-04 09:43 | 50.83244 | 5.22360 | 7388 ft | 268 kts | 307° |
| 2026-05-04 09:43 | 50.84392 | 5.20066 | 7050 ft | 267 kts | 307° |
| 2026-05-04 09:43 | 50.85540 | 5.17771 | 6709 ft | 265 kts | 307° |
| 2026-05-04 09:43 | 50.86679 | 5.15486 | 6380 ft | 264 kts | 307° |
| 2026-05-04 09:44 | 50.87796 | 5.13186 | 6043 ft | 262 kts | 304° |
| 2026-05-04 09:44 | 50.88820 | 5.10810 | 5713 ft | 260 kts | 302° |
| 2026-05-04 09:44 | 50.89773 | 5.08408 | 5367 ft | 260 kts | 301° |
| 2026-05-04 09:46 | 50.96267 | 4.92087 | 3829 ft | 232 kts | 302° |
| 2026-05-04 09:46 | 50.97118 | 4.89953 | 3758 ft | 224 kts | 301° |
| 2026-05-04 09:46 | 50.97782 | 4.87780 | 3682 ft | 219 kts | 284° |
| 2026-05-04 09:47 | 50.97763 | 4.85466 | 3605 ft | 205 kts | 252° |
| 2026-05-04 09:47 | 50.97226 | 4.83468 | 3538 ft | 191 kts | 245° |
| 2026-05-04 09:49 | 50.94116 | 4.70725 | 2596 ft | 175 kts | 251° |
| 2026-05-04 09:49 | 50.93708 | 4.68942 | 2405 ft | 169 kts | 251° |
| 2026-05-04 09:49 | 50.93317 | 4.67230 | 2161 ft | 156 kts | 251° |
| 2026-05-04 09:51 | 50.91121 | 4.57657 | 891 ft | 152 kts | 250° |
| 2026-05-04 09:51 | 50.90768 | 4.56081 | 698 ft | 153 kts | 251° |
| 2026-05-04 09:51 | 50.90416 | 4.54485 | 491 ft | 153 kts | 248° |
| 2026-05-04 09:51 | 50.90035 | 4.52920 | 281 ft | 153 kts | 250° |
| 2026-05-04 09:52 | 50.89697 | 4.51437 | 164 ft | 147 kts | 249° |
| 2026-05-04 09:52 | 50.89380 | 4.50101 | 155 ft | 93 kts | 249° |
| 2026-05-04 09:52 | 50.89230 | 4.49449 | 157 ft | 36 kts | 250° |
| 2026-05-04 09:52 | 50.89183 | 4.49248 | 159 ft | 14 kts | 250° |
| 2026-05-04 09:53 | 50.89153 | 4.49099 | 160 ft | 13 kts | 270° |
| 2026-05-04 09:53 | 50.89218 | 4.49041 | 158 ft | 12 kts | 17° |
| 2026-05-04 09:53 | 50.89306 | 4.49083 | 156 ft | 13 kts | 14° |
| 2026-05-04 09:53 | 50.89400 | 4.49121 | 155 ft | 14 kts | 15° |
| 2026-05-04 09:54 | 50.89501 | 4.49160 | 153 ft | 15 kts | 13° |
| 2026-05-04 09:54 | 50.89597 | 4.49217 | 154 ft | 13 kts | 38° |
| 2026-05-04 09:54 | 50.89683 | 4.49277 | 154 ft | 15 kts | 15° |
| 2026-05-04 09:54 | 50.89808 | 4.49327 | 153 ft | 20 kts | 14° |
| 2026-05-04 09:55 | 50.89947 | 4.49385 | 152 ft | 20 kts | 15° |
| 2026-05-04 09:55 | 50.90096 | 4.49445 | 145 ft | 23 kts | 14° |
| 2026-05-04 09:55 | 50.90262 | 4.49514 | 138 ft | 25 kts | 14° |
| 2026-05-04 09:55 | 50.90445 | 4.49587 | 130 ft | 28 kts | 15° |
| 2026-05-04 09:56 | 50.90622 | 4.49660 | 122 ft | 17 kts | 14° |
| 2026-05-04 09:56 | 50.90747 | 4.49712 | 116 ft | 20 kts | 15° |
| 2026-05-04 09:56 | 50.90796 | 4.49591 | 115 ft | 17 kts | 246° |
| 2026-05-04 09:56 | 50.90749 | 4.49431 | 118 ft | 14 kts | 243° |
| 2026-05-04 09:57 | 50.90712 | 4.49298 | 120 ft | 12 kts | 247° |
| 2026-05-04 09:57 | 50.90681 | 4.49193 | 120 ft | 9 kts | 245° |
| 2026-05-04 09:57 | 50.90640 | 4.49052 | 119 ft | 18 kts | 248° |
| 2026-05-04 09:57 | 50.90590 | 4.48872 | 118 ft | 18 kts | 246° |
| 2026-05-04 09:58 | 50.90535 | 4.48687 | 116 ft | 18 kts | 246° |
| 2026-05-04 09:58 | 50.90480 | 4.48496 | 114 ft | 19 kts | 245° |
| 2026-05-04 09:58 | 50.90427 | 4.48313 | 116 ft | 17 kts | 245° |
| 2026-05-04 10:00 | 50.90278 | 4.47846 | 115 ft | 2 kts | 165° |
| 2026-05-04 10:00 | 50.90244 | 4.47862 | 117 ft | 4 kts | 156° |
| 2026-05-04 10:02 | 50.90217 | 4.47882 | 118 ft | 0 kts | 156° |